Time;durP1;ratioP1;P1;durP2;ratioP2;P2;SDS_P1;SDS_P2;PMS_P1;PMS_P2;Temp;Humidity;BMP_temperature;BMP_pressure;BME280_temperature;BME280_humidity;BME280_pressure;Samples;Min_cycle;Max_cycle;Signal;HPM_P1;HPM_P2
2021/06/25 00:00:31;;;;;;;7.00;4.50;;;17.50;99.90;;;;;;5048408;28;20523;-50
2021/06/25 00:02:56;;;;;;;8.93;4.50;;;17.60;99.90;;;;;;5048278;28;20476;-50
2021/06/25 00:05:22;;;;;;;6.80;4.50;;;17.70;99.90;;;;;;5048410;28;20458;-52
2021/06/25 00:07:48;;;;;;;7.90;4.43;;;17.70;99.90;;;;;;5049290;28;20434;-50
2021/06/25 00:10:13;;;;;;;7.20;4.60;;;17.60;99.90;;;;;;5049355;28;20523;-49
2021/06/25 00:12:39;;;;;;;7.50;4.47;;;17.60;99.90;;;;;;5048401;28;20385;-50
2021/06/25 00:15:08;;;;;;;7.68;4.20;;;17.60;99.90;;;;;;5049214;28;20389;-49
2021/06/25 00:17:35;;;;;;;7.55;4.00;;;17.60;99.90;;;;;;5048406;28;20393;-50
2021/06/25 00:20:00;;;;;;;7.63;4.23;;;17.60;99.90;;;;;;5049130;28;20405;-51
2021/06/25 00:22:26;;;;;;;6.88;4.20;;;17.60;99.90;;;;;;5048110;28;20392;-50
2021/06/25 00:24:52;;;;;;;6.13;3.50;;;17.60;99.90;;;;;;5051613;28;20862;-51
2021/06/25 00:27:17;;;;;;;6.05;3.92;;;17.70;99.90;;;;;;5053182;28;20721;-49
2021/06/25 00:29:43;;;;;;;6.93;4.20;;;17.60;99.90;;;;;;5052301;28;21286;-50
2021/06/25 00:32:09;;;;;;;8.37;4.10;;;17.60;99.90;;;;;;5051750;28;20431;-50
2021/06/25 00:34:36;;;;;;;7.50;4.20;;;17.60;99.90;;;;;;5052416;28;20408;-50
2021/06/25 00:37:04;;;;;;;8.10;3.70;;;17.70;99.90;;;;;;5052712;28;20431;-50
2021/06/25 00:39:29;;;;;;;6.00;3.90;;;17.70;99.90;;;;;;5050723;28;20405;-50
2021/06/25 00:41:55;;;;;;;6.00;3.43;;;17.60;99.90;;;;;;5052950;28;20484;-50
2021/06/25 00:44:21;;;;;;;6.28;3.83;;;17.50;99.90;;;;;;5052469;28;20920;-52
2021/06/25 00:46:48;;;;;;;6.00;3.80;;;17.40;99.90;;;;;;5052856;28;20457;-50
2021/06/25 00:49:14;;;;;;;6.32;3.63;;;17.40;99.90;;;;;;5052823;28;20462;-50
2021/06/25 00:51:40;;;;;;;6.80;4.00;;;17.30;99.90;;;;;;5051641;28;21134;-50
2021/06/25 00:54:10;;;;;;;7.75;4.60;;;17.40;99.90;;;;;;5052762;28;20374;-49
2021/06/25 00:56:36;;;;;;;7.88;4.30;;;17.40;99.90;;;;;;5052097;28;20427;-51
2021/06/25 00:59:03;;;;;;;6.55;4.20;;;17.60;99.90;;;;;;5052447;28;20488;-50
2021/06/25 01:01:29;;;;;;;8.27;4.60;;;17.50;99.90;;;;;;5051613;28;20397;-49
2021/06/25 01:03:54;;;;;;;7.07;4.90;;;17.50;99.90;;;;;;5047705;28;20741;-50
2021/06/25 01:06:20;;;;;;;8.87;4.73;;;17.50;99.90;;;;;;5032046;28;20557;-52
2021/06/25 01:08:46;;;;;;;7.70;4.70;;;17.50;99.90;;;;;;5032452;28;20871;-50
2021/06/25 01:11:13;;;;;;;8.65;5.75;;;17.40;99.90;;;;;;5032779;28;20490;-49
2021/06/25 01:13:38;;;;;;;7.72;5.07;;;17.40;99.90;;;;;;5030720;28;20707;-49
2021/06/25 01:16:07;;;;;;;8.30;5.75;;;17.40;99.90;;;;;;5032542;28;20908;-49
2021/06/25 01:18:34;;;;;;;8.30;5.43;;;17.30;99.90;;;;;;5031835;28;20380;-49
2021/06/25 01:21:00;;;;;;;9.65;5.65;;;17.30;99.90;;;;;;5032387;28;20430;-50
2021/06/25 01:23:26;;;;;;;10.02;6.10;;;17.20;99.90;;;;;;5031648;28;20761;-50
2021/06/25 01:25:53;;;;;;;9.05;6.20;;;17.20;99.90;;;;;;5032219;28;20479;-49
2021/06/25 01:28:19;;;;;;;8.88;6.28;;;17.30;99.90;;;;;;5032382;28;20850;-50
2021/06/25 01:30:47;;;;;;;11.20;6.32;;;17.30;99.90;;;;;;5031637;28;20418;-49
2021/06/25 01:33:15;;;;;;;9.05;6.20;;;17.20;99.90;;;;;;5032159;28;20379;-49
2021/06/25 01:35:41;;;;;;;10.45;6.10;;;17.10;99.90;;;;;;5030700;28;20410;-50
2021/06/25 01:38:14;;;;;;;11.20;6.37;;;17.10;99.90;;;;;;5032256;28;20426;-50
2021/06/25 01:40:42;;;;;;;11.60;6.68;;;16.90;99.90;;;;;;5031285;28;20411;-50
2021/06/25 01:43:08;;;;;;;8.90;6.53;;;16.90;99.90;;;;;;5030795;28;20916;-50
2021/06/25 01:45:36;;;;;;;11.65;6.82;;;16.90;99.90;;;;;;5031174;28;20395;-49
2021/06/25 01:48:04;;;;;;;12.10;7.07;;;16.90;99.90;;;;;;5031969;28;20371;-49
2021/06/25 01:50:36;;;;;;;11.07;6.75;;;17.00;99.90;;;;;;5031231;28;20469;-50
2021/06/25 01:53:03;;;;;;;10.33;7.23;;;17.10;99.90;;;;;;5032014;28;20784;-50
2021/06/25 01:55:39;;;;;;;10.52;7.75;;;17.10;99.90;;;;;;5030745;28;20465;-50
2021/06/25 01:58:08;;;;;;;11.77;6.75;;;17.10;99.90;;;;;;5031868;28;20566;-51
2021/06/25 02:00:33;;;;;;;10.50;6.90;;;17.30;99.90;;;;;;5030602;28;20971;-49
2021/06/25 02:02:59;;;;;;;10.50;6.70;;;17.40;99.90;;;;;;5031334;28;20542;-50
2021/06/25 02:05:25;;;;;;;11.60;7.90;;;17.40;99.90;;;;;;5030485;28;20420;-52
2021/06/25 02:07:50;;;;;;;12.32;7.68;;;17.40;99.90;;;;;;5031400;28;20457;-51
2021/06/25 02:10:16;;;;;;;11.52;8.15;;;17.40;99.90;;;;;;5031264;28;20395;-49
2021/06/25 02:12:41;;;;;;;12.87;8.33;;;17.50;99.90;;;;;;5030727;28;20542;-50
2021/06/25 02:15:09;;;;;;;15.68;9.27;;;17.40;99.90;;;;;;5031516;28;20387;-50
2021/06/25 02:17:34;;;;;;;12.23;8.80;;;17.50;99.90;;;;;;5030229;28;20383;-50
2021/06/25 02:20:00;;;;;;;12.27;8.95;;;17.40;99.90;;;;;;5031218;28;20826;-52
2021/06/25 02:22:26;;;;;;;9.50;6.80;;;17.40;99.90;;;;;;5030676;28;20387;-49
2021/06/25 02:24:51;;;;;;;10.33;6.23;;;17.40;99.90;;;;;;5030790;28;20412;-50
2021/06/25 02:27:17;;;;;;;9.95;6.20;;;17.40;99.90;;;;;;5031432;28;20379;-50
2021/06/25 02:29:43;;;;;;;9.60;6.40;;;17.40;99.90;;;;;;5030140;28;21045;-50
2021/06/25 02:32:09;;;;;;;10.23;7.07;;;17.30;99.90;;;;;;5030924;28;20448;-50
2021/06/25 02:34:34;;;;;;;10.07;7.32;;;17.50;99.90;;;;;;5029606;28;20450;-50
2021/06/25 02:37:00;;;;;;;11.50;7.30;;;17.50;99.90;;;;;;5029647;28;20415;-50
2021/06/25 02:39:26;;;;;;;12.48;8.00;;;17.40;99.90;;;;;;5029995;28;20454;-50
2021/06/25 02:41:52;;;;;;;12.07;8.43;;;17.40;99.90;;;;;;5030807;28;20380;-49
2021/06/25 02:44:17;;;;;;;14.40;9.65;;;17.00;99.90;;;;;;5030344;28;20414;-50
2021/06/25 02:46:43;;;;;;;12.88;8.05;;;17.00;99.90;;;;;;5028801;28;20388;-50
2021/06/25 02:49:09;;;;;;;11.83;8.50;;;17.10;99.90;;;;;;5030409;28;20923;-49
2021/06/25 02:51:34;;;;;;;12.57;8.68;;;17.00;99.90;;;;;;5029646;28;20383;-50
2021/06/25 02:54:00;;;;;;;11.85;8.77;;;17.00;99.90;;;;;;5030421;28;20932;-50
2021/06/25 02:56:26;;;;;;;10.50;7.50;;;17.00;99.90;;;;;;5029899;28;20391;-52
2021/06/25 02:58:51;;;;;;;11.98;7.63;;;17.00;99.90;;;;;;5030216;28;20383;-49
2021/06/25 03:01:17;;;;;;;10.35;7.78;;;17.00;99.90;;;;;;5030056;28;20415;-50
2021/06/25 03:03:42;;;;;;;10.40;7.50;;;17.00;99.90;;;;;;5029620;28;20767;-49
2021/06/25 03:06:08;;;;;;;11.20;7.30;;;17.00;99.90;;;;;;5029763;28;20403;-49
2021/06/25 03:08:34;;;;;;;10.13;7.00;;;17.00;99.90;;;;;;5029226;28;20381;-50
2021/06/25 03:11:01;;;;;;;10.07;7.23;;;16.90;99.90;;;;;;5030193;28;20391;-49
2021/06/25 03:13:27;;;;;;;11.10;7.00;;;16.90;99.90;;;;;;5029300;28;20399;-52
2021/06/25 03:15:53;;;;;;;10.73;6.72;;;16.90;99.90;;;;;;5029851;28;20419;-49
2021/06/25 03:18:20;;;;;;;9.38;6.50;;;16.90;99.90;;;;;;5029890;28;20415;-49
2021/06/25 03:20:46;;;;;;;11.30;6.00;;;16.90;99.90;;;;;;5029020;28;20398;-49
2021/06/25 03:23:12;;;;;;;9.48;6.90;;;16.90;99.90;;;;;;5029936;28;20383;-49
2021/06/25 03:25:38;;;;;;;10.60;6.53;;;16.90;99.90;;;;;;5029361;28;20844;-50
2021/06/25 03:28:08;;;;;;;9.93;6.73;;;16.80;99.90;;;;;;5029924;28;20405;-49
2021/06/25 03:30:35;;;;;;;11.70;6.95;;;16.70;99.90;;;;;;5028685;28;20479;-49
2021/06/25 03:33:00;;;;;;;10.43;6.70;;;16.70;99.90;;;;;;5029683;28;20390;-50
2021/06/25 03:35:26;;;;;;;9.20;6.60;;;16.70;99.90;;;;;;5029451;28;20387;-52
2021/06/25 03:37:52;;;;;;;11.88;6.88;;;16.60;99.90;;;;;;5029788;28;20475;-50
2021/06/25 03:40:18;;;;;;;10.95;7.20;;;16.60;99.90;;;;;;5029603;28;20900;-49
2021/06/25 03:42:44;;;;;;;10.52;7.10;;;16.70;99.90;;;;;;5029078;28;20382;-49
2021/06/25 03:45:12;;;;;;;10.65;6.55;;;16.90;99.90;;;;;;5029819;28;20415;-49
2021/06/25 03:47:39;;;;;;;10.80;7.10;;;17.00;99.90;;;;;;5029098;28;20466;-49
2021/06/25 03:50:06;;;;;;;10.00;6.60;;;16.90;99.90;;;;;;5029323;28;20402;-49
2021/06/25 03:52:32;;;;;;;10.68;6.80;;;16.80;99.90;;;;;;5028779;28;20387;-49
2021/06/25 03:54:58;;;;;;;10.30;6.80;;;16.80;99.90;;;;;;5029885;28;20425;-50
2021/06/25 03:57:23;;;;;;;11.20;7.35;;;16.80;99.90;;;;;;5029323;28;20509;-52
2021/06/25 03:59:49;;;;;;;10.40;6.55;;;16.80;99.90;;;;;;5028720;28;20414;-49
2021/06/25 04:02:15;;;;;;;10.17;6.40;;;16.80;99.90;;;;;;5029264;28;20753;-49
2021/06/25 04:04:41;;;;;;;9.70;6.82;;;16.90;99.90;;;;;;5028383;28;20410;-49
2021/06/25 04:07:07;;;;;;;9.90;6.88;;;16.90;99.90;;;;;;5031905;28;20397;-49
2021/06/25 04:09:34;;;;;;;9.88;6.70;;;16.90;99.90;;;;;;5037259;28;20521;-49
2021/06/25 04:12:00;;;;;;;10.70;6.95;;;16.90;99.90;;;;;;5039099;28;20378;-50
2021/06/25 04:14:26;;;;;;;10.70;7.18;;;17.00;99.90;;;;;;5039481;28;20386;-52
2021/06/25 04:16:52;;;;;;;9.90;5.97;;;17.00;99.90;;;;;;5039522;28;20392;-49
2021/06/25 04:19:19;;;;;;;9.35;5.78;;;17.00;99.90;;;;;;5032459;28;20482;-49
2021/06/25 04:21:44;;;;;;;8.00;5.20;;;17.10;99.90;;;;;;5035102;28;20450;-49
2021/06/25 04:24:11;;;;;;;10.38;5.35;;;17.10;99.90;;;;;;5039736;28;20727;-50
2021/06/25 04:26:38;;;;;;;8.15;5.20;;;17.20;99.90;;;;;;5037748;28;20865;-50
2021/06/25 04:29:12;;;;;;;10.63;4.90;;;17.20;99.90;;;;;;5038254;28;20385;-49
2021/06/25 04:31:39;;;;;;;8.23;5.03;;;17.20;99.90;;;;;;5035279;28;20391;-49
2021/06/25 04:34:05;;;;;;;9.00;4.60;;;17.10;99.90;;;;;;5037846;28;20396;-49
2021/06/25 04:36:31;;;;;;;8.38;5.10;;;17.00;99.90;;;;;;5037704;28;20891;-49
2021/06/25 04:38:57;;;;;;;8.60;5.60;;;17.00;99.90;;;;;;5038331;28;20395;-50
2021/06/25 04:41:23;;;;;;;9.65;5.65;;;16.90;99.90;;;;;;5037880;28;20922;-49
2021/06/25 04:43:49;;;;;;;9.87;5.00;;;16.80;99.90;;;;;;5033266;28;20424;-49
2021/06/25 04:46:14;;;;;;;9.25;5.60;;;16.60;99.90;;;;;;5029569;28;20414;-49
2021/06/25 04:48:42;;;;;;;10.70;5.20;;;16.40;99.90;;;;;;5027232;28;20375;-49
2021/06/25 04:51:07;;;;;;;8.50;4.90;;;16.30;99.90;;;;;;5028929;28;20452;-49
2021/06/25 04:53:33;;;;;;;7.80;4.90;;;16.30;99.90;;;;;;5028733;28;20861;-50
2021/06/25 04:55:59;;;;;;;7.63;4.75;;;16.40;99.90;;;;;;5029313;28;20375;-50
2021/06/25 04:58:27;;;;;;;10.23;5.30;;;16.50;99.90;;;;;;5028831;28;20379;-50
2021/06/25 05:00:54;;;;;;;8.63;5.47;;;16.60;99.90;;;;;;5024894;28;20419;-49
2021/06/25 05:03:20;;;;;;;8.15;4.43;;;16.70;99.90;;;;;;5028749;28;20390;-50
2021/06/25 05:05:45;;;;;;;8.70;5.03;;;16.60;99.90;;;;;;5028089;28;20422;-49
2021/06/25 05:08:12;;;;;;;9.25;5.45;;;16.50;99.90;;;;;;5028897;28;20379;-50
2021/06/25 05:10:38;;;;;;;9.27;5.53;;;16.40;99.90;;;;;;5030003;28;20387;-50
2021/06/25 05:13:05;;;;;;;9.60;5.47;;;16.30;99.90;;;;;;5032355;28;20462;-52
2021/06/25 05:15:31;;;;;;;9.35;5.20;;;16.40;99.90;;;;;;5031551;28;20386;-50
2021/06/25 05:17:57;;;;;;;9.07;5.47;;;16.40;99.90;;;;;;5031888;28;20829;-50
2021/06/25 05:20:24;;;;;;;8.90;5.10;;;16.30;99.90;;;;;;5031900;28;20502;-51
2021/06/25 05:22:50;;;;;;;8.07;4.75;;;16.20;99.90;;;;;;5046754;28;20395;-51
2021/06/25 05:25:16;;;;;;;8.65;4.40;;;16.20;99.90;;;;;;5032171;28;20498;-50
2021/06/25 05:27:42;;;;;;;9.20;4.20;;;16.20;99.90;;;;;;5031248;28;20391;-50
2021/06/25 05:30:10;;;;;;;8.43;4.60;;;16.20;99.90;;;;;;5031929;28;20393;-51
2021/06/25 05:32:35;;;;;;;7.80;4.70;;;16.30;99.90;;;;;;5031074;28;20395;-50
2021/06/25 05:35:02;;;;;;;7.17;4.57;;;16.40;99.90;;;;;;5031998;28;20473;-52
2021/06/25 05:37:28;;;;;;;8.00;4.32;;;16.40;99.90;;;;;;5031471;28;20411;-54
2021/06/25 05:39:54;;;;;;;7.80;4.77;;;16.50;99.90;;;;;;5031421;28;20407;-49
2021/06/25 05:42:19;;;;;;;8.35;4.78;;;16.70;99.90;;;;;;5028978;28;20409;-49
2021/06/25 05:44:45;;;;;;;7.30;4.60;;;16.90;99.90;;;;;;5031109;28;20502;-49
2021/06/25 05:47:11;;;;;;;7.63;4.10;;;17.00;99.90;;;;;;5031417;28;20777;-49
2021/06/25 05:49:36;;;;;;;6.20;3.60;;;17.10;99.90;;;;;;5030929;28;20403;-49
2021/06/25 05:52:02;;;;;;;6.40;3.50;;;17.20;99.90;;;;;;5024238;28;20438;-51
2021/06/25 05:54:28;;;;;;;5.80;3.30;;;17.30;99.90;;;;;;5028618;28;20391;-53
2021/06/25 05:56:54;;;;;;;5.90;3.20;;;17.40;99.90;;;;;;5030492;28;20445;-50
2021/06/25 05:59:20;;;;;;;6.83;3.93;;;17.40;99.90;;;;;;5031063;28;20483;-50
2021/06/25 06:01:45;;;;;;;7.70;4.53;;;17.40;99.90;;;;;;5030746;28;20837;-49
2021/06/25 06:04:11;;;;;;;5.87;3.50;;;17.50;99.90;;;;;;5031098;28;20748;-50
2021/06/25 06:06:37;;;;;;;7.10;3.80;;;17.40;99.90;;;;;;5030266;28;20418;-49
2021/06/25 06:09:03;;;;;;;5.97;3.60;;;17.50;99.90;;;;;;5031345;28;20421;-49
2021/06/25 06:11:29;;;;;;;6.72;3.30;;;17.70;99.90;;;;;;5030775;28;20419;-49
2021/06/25 06:13:55;;;;;;;5.55;3.20;;;17.90;99.90;;;;;;5031246;28;20383;-49
2021/06/25 06:16:21;;;;;;;7.20;3.20;;;18.20;99.90;;;;;;5031300;28;20394;-50
2021/06/25 06:18:47;;;;;;;7.03;3.60;;;18.30;99.90;;;;;;5029229;28;20383;-49
2021/06/25 06:21:15;;;;;;;5.82;3.15;;;18.30;99.90;;;;;;5030185;28;20407;-51
2021/06/25 06:32:03;;;;;;;10.95;3.80;;;18.00;99.90;;;;;;5031039;28;20422;-50
2021/06/25 06:34:34;;;;;;;7.55;3.67;;;18.10;99.90;;;;;;5030692;28;20495;-52
2021/06/25 06:37:00;;;;;;;7.90;4.20;;;18.10;99.90;;;;;;5029706;28;20449;-50
2021/06/25 06:39:26;;;;;;;7.07;3.90;;;18.10;99.90;;;;;;5030922;28;20425;-51
2021/06/25 06:41:51;;;;;;;6.40;3.83;;;18.00;99.90;;;;;;5030030;28;20395;-50
2021/06/25 06:44:17;;;;;;;7.40;3.80;;;17.90;99.90;;;;;;5030952;28;20844;-50
2021/06/25 06:46:42;;;;;;;8.70;4.30;;;17.80;99.90;;;;;;5030071;28;20760;-49
2021/06/25 06:49:08;;;;;;;6.53;3.80;;;17.90;99.90;;;;;;5030883;28;20773;-50
2021/06/25 06:51:34;;;;;;;6.40;3.80;;;18.00;99.90;;;;;;5030089;28;20387;-50
2021/06/25 06:54:01;;;;;;;7.68;3.80;;;18.00;99.90;;;;;;5030047;28;20387;-50
2021/06/25 06:56:27;;;;;;;7.18;4.00;;;18.10;99.90;;;;;;5029845;28;20738;-49
2021/06/25 06:58:54;;;;;;;7.75;4.90;;;18.00;99.90;;;;;;5030629;28;20379;-51
2021/06/25 07:01:21;;;;;;;6.97;4.32;;;18.00;99.90;;;;;;5030391;28;20403;-51
2021/06/25 07:03:47;;;;;;;9.05;5.70;;;18.00;99.90;;;;;;5029752;28;20588;-50
2021/06/25 07:06:14;;;;;;;9.73;5.80;;;17.90;99.90;;;;;;5029975;28;20410;-50
2021/06/25 07:08:40;;;;;;;8.00;5.40;;;18.10;99.90;;;;;;5029886;28;20379;-49
2021/06/25 07:11:06;;;;;;;11.73;7.22;;;18.20;99.90;;;;;;5029810;28;20874;-50
2021/06/25 07:13:32;;;;;;;13.75;8.10;;;18.20;99.90;;;;;;5029266;28;20501;-53
2021/06/25 07:15:58;;;;;;;13.75;8.35;;;18.00;99.90;;;;;;5030257;28;20418;-50
2021/06/25 07:18:24;;;;;;;15.48;8.60;;;17.90;99.90;;;;;;5029974;28;20932;-50
2021/06/25 07:20:50;;;;;;;14.32;8.70;;;18.10;99.90;;;;;;5029413;28;20480;-52
2021/06/25 07:23:17;;;;;;;13.90;8.40;;;18.20;99.90;;;;;;5028476;28;20742;-50
2021/06/25 07:25:42;;;;;;;12.90;8.65;;;18.30;99.90;;;;;;5028920;28;20769;-50
2021/06/25 07:28:08;;;;;;;12.53;8.70;;;18.20;99.90;;;;;;5028655;28;20477;-50
2021/06/25 07:30:34;;;;;;;13.93;8.80;;;18.30;99.90;;;;;;5029564;28;20407;-51
2021/06/25 07:33:00;;;;;;;16.98;8.88;;;18.30;99.90;;;;;;5029269;28;20425;-49
2021/06/25 07:35:26;;;;;;;12.97;8.67;;;18.30;99.90;;;;;;5030016;28;20477;-52
2021/06/25 07:37:51;;;;;;;13.82;8.10;;;18.50;99.90;;;;;;5028813;28;20379;-52
2021/06/25 07:40:19;;;;;;;12.13;8.05;;;19.20;99.90;;;;;;5029257;28;20519;-50
2021/06/25 07:42:45;;;;;;;11.20;7.47;;;18.50;99.90;;;;;;5029110;28;20390;-49
2021/06/25 07:45:11;;;;;;;11.18;7.82;;;18.40;99.90;;;;;;5029752;28;20391;-52
2021/06/25 07:47:40;;;;;;;10.55;6.07;;;18.60;99.90;;;;;;5028773;28;20372;-49
2021/06/25 07:50:09;;;;;;;8.02;5.30;;;18.50;99.90;;;;;;5030147;28;20390;-49
2021/06/25 07:52:34;;;;;;;8.00;5.13;;;18.40;99.90;;;;;;5029220;28;20379;-50
2021/06/25 07:55:00;;;;;;;7.68;4.47;;;18.30;99.90;;;;;;5029229;28;20391;-50
2021/06/25 07:57:26;;;;;;;7.10;4.17;;;18.30;99.90;;;;;;5029417;28;20414;-51
2021/06/25 07:59:52;;;;;;;7.35;3.78;;;18.20;99.90;;;;;;5028475;28;20407;-51
2021/06/25 08:02:18;;;;;;;5.90;3.23;;;18.10;99.90;;;;;;5029810;28;20433;-49
2021/06/25 08:04:47;;;;;;;6.88;4.03;;;17.90;99.90;;;;;;5028813;28;20403;-49
2021/06/25 08:07:17;;;;;;;6.93;3.72;;;17.90;99.90;;;;;;5029594;28;20382;-52
2021/06/25 08:09:43;;;;;;;7.10;3.63;;;18.00;99.90;;;;;;5028254;28;20431;-49
2021/06/25 08:12:10;;;;;;;5.72;3.03;;;18.10;99.90;;;;;;5029414;28;20414;-50
2021/06/25 08:14:37;;;;;;;7.30;3.15;;;18.20;99.90;;;;;;5028477;28;20733;-50
2021/06/25 08:17:05;;;;;;;6.65;3.40;;;18.30;99.90;;;;;;5027776;28;20774;-49
2021/06/25 08:19:31;;;;;;;5.87;3.10;;;18.20;99.90;;;;;;5028760;28;20390;-50
2021/06/25 08:21:57;;;;;;;7.22;3.50;;;18.30;99.90;;;;;;5029089;28;20441;-49
2021/06/25 08:24:23;;;;;;;5.47;3.05;;;18.20;99.90;;;;;;5028981;28;20897;-51
2021/06/25 08:26:49;;;;;;;6.20;2.63;;;18.20;99.90;;;;;;5028825;28;20375;-50
2021/06/25 08:29:14;;;;;;;6.30;3.30;;;18.20;99.90;;;;;;5028945;28;20387;-50
2021/06/25 08:31:40;;;;;;;5.80;2.50;;;18.20;99.90;;;;;;5028286;28;20458;-49
2021/06/25 08:34:10;;;;;;;5.00;2.40;;;18.40;99.90;;;;;;5029740;28;20709;-50
2021/06/25 08:36:36;;;;;;;4.35;1.92;;;18.30;99.90;;;;;;5028874;28;20482;-50
2021/06/25 08:39:03;;;;;;;5.40;2.38;;;18.00;99.90;;;;;;5029397;28;20379;-49
2021/06/25 08:41:29;;;;;;;5.40;2.70;;;17.80;99.90;;;;;;5029094;28;20418;-49
2021/06/25 08:43:55;;;;;;;4.80;2.20;;;17.60;99.90;;;;;;5028328;28;20384;-49
2021/06/25 08:46:21;;;;;;;4.23;2.10;;;17.50;99.90;;;;;;5032251;28;20798;-51
2021/06/25 08:48:51;;;;;;;4.65;2.30;;;17.40;99.90;;;;;;5032628;28;20387;-49
2021/06/25 08:51:17;;;;;;;5.03;2.30;;;17.40;99.90;;;;;;5031683;28;20391;-49
2021/06/25 08:53:43;;;;;;;5.80;2.47;;;17.30;99.90;;;;;;5032095;28;20777;-49
2021/06/25 08:56:09;;;;;;;5.73;2.90;;;17.20;99.90;;;;;;5032500;28;20387;-52
2021/06/25 08:58:34;;;;;;;5.45;2.60;;;17.10;99.90;;;;;;5032343;28;20438;-49
2021/06/25 09:01:01;;;;;;;5.88;2.50;;;17.10;99.90;;;;;;5032145;28;20414;-50
2021/06/25 09:03:29;;;;;;;6.78;3.30;;;17.10;99.90;;;;;;5032388;28;20441;-50
2021/06/25 09:06:11;;;;;;;6.93;3.53;;;17.10;99.90;;;;;;5032147;28;20800;-49
2021/06/25 09:08:38;;;;;;;8.90;5.47;;;17.10;99.90;;;;;;5032333;28;20474;-50
2021/06/25 09:11:16;;;;;;;10.05;5.95;;;17.00;99.90;;;;;;5032052;28;20389;-49
2021/06/25 09:13:42;;;;;;;10.15;6.50;;;17.00;99.90;;;;;;5032024;28;20385;-49
2021/06/25 09:16:26;;;;;;;11.18;6.45;;;17.10;99.90;;;;;;5031502;28;20411;-49
2021/06/25 09:19:16;;;;;;;9.80;6.10;;;17.10;99.90;;;;;;5031730;28;20470;-50
2021/06/25 09:21:57;;;;;;;10.57;5.72;;;17.10;99.90;;;;;;5030896;28;20509;-50
2021/06/25 09:24:25;;;;;;;11.18;6.70;;;17.10;99.90;;;;;;5030767;28;20395;-49
2021/06/25 09:27:02;;;;;;;10.70;7.20;;;17.00;99.90;;;;;;5031761;28;21006;-49
2021/06/25 09:29:33;;;;;;;12.13;6.75;;;17.10;99.90;;;;;;5032728;28;20505;-49
2021/06/25 09:32:00;;;;;;;12.23;6.80;;;17.20;99.90;;;;;;5032185;28;20390;-49
2021/06/25 09:34:46;;;;;;;11.90;7.63;;;17.30;99.90;;;;;;5031361;28;20399;-49
2021/06/25 09:37:15;;;;;;;11.65;6.95;;;17.50;99.90;;;;;;5032344;28;20429;-49
2021/06/25 09:39:56;;;;;;;12.07;7.65;;;17.40;99.90;;;;;;5031138;28;20477;-49
2021/06/25 09:42:23;;;;;;;13.05;8.02;;;17.40;99.90;;;;;;5031451;28;20391;-49
2021/06/25 09:45:15;;;;;;;15.07;8.52;;;17.40;99.90;;;;;;5030540;28;20764;-49
2021/06/25 09:47:52;;;;;;;14.00;8.27;;;17.40;99.90;;;;;;5030859;28;20845;-51
2021/06/25 09:50:20;;;;;;;15.00;9.60;;;17.40;99.90;;;;;;5031388;28;20381;-50
2021/06/25 09:52:50;;;;;;;15.82;9.60;;;17.60;99.90;;;;;;5031155;28;20383;-50
2021/06/25 09:55:30;;;;;;;16.08;8.80;;;17.80;99.90;;;;;;5030141;28;20395;-50
2021/06/25 10:01:22;;;;;;;14.17;9.20;;;17.90;99.90;;;;;;5031019;28;20421;-51
2021/06/25 10:03:57;;;;;;;14.20;8.80;;;18.00;99.90;;;;;;5030518;28;20738;-50
2021/06/25 10:06:25;;;;;;;14.23;9.43;;;18.30;99.90;;;;;;5031816;28;20541;-50
2021/06/25 10:08:52;;;;;;;15.70;10.38;;;18.40;99.90;;;;;;5030299;28;20391;-50
2021/06/25 10:11:23;;;;;;;15.25;9.85;;;18.40;99.90;;;;;;5031407;28;20390;-50
2021/06/25 10:13:51;;;;;;;15.70;9.38;;;18.50;99.90;;;;;;5030721;28;20397;-51
2021/06/25 10:16:17;;;;;;;17.20;9.77;;;18.40;99.90;;;;;;5030946;28;20391;-50
2021/06/25 10:18:44;;;;;;;16.83;11.00;;;18.40;99.90;;;;;;5029454;28;20741;-49
2021/06/25 10:21:15;;;;;;;17.17;10.68;;;18.30;99.90;;;;;;5031154;28;20490;-50
2021/06/25 10:23:47;;;;;;;19.30;11.70;;;18.10;99.90;;;;;;5030546;28;20401;-49
2021/06/25 10:26:14;;;;;;;20.23;12.00;;;18.20;99.90;;;;;;5031036;28;20375;-50
2021/06/25 10:28:42;;;;;;;20.13;12.63;;;18.20;99.90;;;;;;5030378;28;20379;-52
2021/06/25 10:31:14;;;;;;;22.88;13.90;;;18.30;99.90;;;;;;5031676;28;20403;-50
2021/06/25 10:33:41;;;;;;;21.13;12.32;;;18.40;99.90;;;;;;5031031;28;20402;-50
2021/06/25 10:36:10;;;;;;;19.80;11.32;;;18.30;99.90;;;;;;5031007;28;20387;-51
2021/06/25 10:38:38;;;;;;;18.67;11.63;;;18.30;99.90;;;;;;5029837;28;20428;-50
2021/06/25 10:41:07;;;;;;;19.08;11.32;;;18.10;99.90;;;;;;5030262;28;20903;-50
2021/06/25 10:43:52;;;;;;;21.30;12.60;;;18.00;99.90;;;;;;5030523;28;20872;-52
2021/06/25 10:46:33;;;;;;;22.38;13.30;;;18.00;99.90;;;;;;5030676;28;20393;-50
2021/06/25 10:49:08;;;;;;;24.60;13.70;;;18.00;99.90;;;;;;5030226;28;20383;-50
2021/06/25 10:51:37;;;;;;;27.92;15.23;;;17.70;99.90;;;;;;5030481;28;20753;-50
2021/06/25 10:54:19;;;;;;;26.73;15.13;;;17.80;99.90;;;;;;5030844;28;20801;-50
2021/06/25 10:56:47;;;;;;;23.33;15.40;;;17.90;99.90;;;;;;5029346;28;20472;-50
2021/06/25 10:59:23;;;;;;;22.85;14.32;;;18.00;99.90;;;;;;5030664;28;20399;-50
2021/06/25 11:01:54;;;;;;;28.98;16.80;;;18.10;99.90;;;;;;5010354;28;20471;-51
2021/06/25 11:04:34;;;;;;;25.20;15.70;;;18.20;99.90;;;;;;5010544;28;20723;-51
2021/06/25 11:07:04;;;;;;;29.50;16.20;;;18.30;99.90;;;;;;5010147;28;20492;-49
2021/06/25 11:09:49;;;;;;;27.45;16.02;;;18.50;99.90;;;;;;5010290;28;20400;-49
2021/06/25 11:12:21;;;;;;;28.27;16.45;;;18.80;99.90;;;;;;5010396;28;20381;-50
2021/06/25 11:14:48;;;;;;;25.10;16.63;;;18.60;99.90;;;;;;5010012;28;20397;-50
2021/06/25 11:17:56;;;;;;;25.40;16.13;;;18.70;99.90;;;;;;5010569;28;20588;-51
2021/06/25 11:20:31;;;;;;;24.15;14.88;;;19.00;99.90;;;;;;5007519;28;20930;-52
2021/06/25 11:22:58;;;;;;;22.73;14.32;;;19.50;99.90;;;;;;5007711;28;20455;-51
2021/06/25 11:25:43;;;;;;;20.45;13.05;;;19.80;99.90;;;;;;5008990;28;20503;-50
2021/06/25 11:28:31;;;;;;;18.73;11.88;;;20.10;99.90;;;;;;5010695;28;20708;-49
2021/06/25 11:31:14;;;;;;;14.02;8.60;;;20.10;99.90;;;;;;5009933;28;20733;-50
2021/06/25 11:33:49;;;;;;;13.80;8.68;;;20.00;99.90;;;;;;5009478;28;20397;-50
2021/06/25 11:36:41;;;;;;;12.10;7.70;;;20.10;99.90;;;;;;5010296;28;20731;-50
2021/06/25 11:39:48;;;;;;;12.52;7.13;;;20.00;99.90;;;;;;5010004;28;20735;-51
2021/06/25 11:42:15;;;;;;;11.02;5.90;;;20.20;99.90;;;;;;5008108;28;20405;-50
2021/06/25 11:44:50;;;;;;;11.38;6.63;;;20.40;99.90;;;;;;5008373;28;20474;-51
2021/06/25 11:47:24;;;;;;;11.27;6.00;;;20.80;99.90;;;;;;5010340;28;20400;-49
2021/06/25 11:50:00;;;;;;;12.05;6.30;;;21.10;99.90;;;;;;5009829;28;20389;-49
2021/06/25 11:52:27;;;;;;;11.05;7.10;;;21.20;99.90;;;;;;5010053;28;20396;-49
2021/06/25 11:54:58;;;;;;;11.40;7.00;;;21.30;99.90;;;;;;5009654;28;20885;-49
2021/06/25 11:57:28;;;;;;;14.43;8.55;;;21.10;99.90;;;;;;5009797;28;20439;-51
2021/06/25 12:00:09;;;;;;;14.25;8.38;;;21.20;99.90;;;;;;5014481;28;20501;-48
2021/06/25 12:02:48;;;;;;;12.63;7.60;;;21.40;99.90;;;;;;5029122;28;20387;-51
2021/06/25 12:05:28;;;;;;;16.13;9.33;;;21.70;99.90;;;;;;5029498;28;20446;-49
2021/06/25 12:08:20;;;;;;;15.05;9.82;;;21.10;99.90;;;;;;5029040;28;20474;-49
2021/06/25 12:10:54;;;;;;;13.60;9.00;;;21.60;99.90;;;;;;5026807;28;20481;-50
2021/06/25 12:13:20;;;;;;;13.43;8.30;;;21.70;99.90;;;;;;5029038;28;20905;-49
2021/06/25 12:15:48;;;;;;;14.43;9.77;;;21.30;99.90;;;;;;5028132;28;20470;-48
2021/06/25 12:18:24;;;;;;;15.95;10.57;;;21.20;99.90;;;;;;5029346;28;20371;-49
2021/06/25 12:21:09;;;;;;;15.43;10.55;;;21.00;99.90;;;;;;5031975;28;20414;-49
2021/06/25 12:23:35;;;;;;;15.57;9.48;;;21.30;99.90;;;;;;5033284;28;20407;-50
2021/06/25 12:26:09;;;;;;;14.03;9.80;;;21.30;99.90;;;;;;5032098;28;20733;-50
2021/06/25 12:28:35;;;;;;;13.68;9.05;;;21.20;99.90;;;;;;5033346;28;20390;-50
2021/06/25 12:31:03;;;;;;;15.90;10.15;;;21.30;99.90;;;;;;5033115;28;20387;-49
2021/06/25 12:33:33;;;;;;;13.38;8.15;;;21.30;99.90;;;;;;5031740;28;20397;-50
2021/06/25 12:36:01;;;;;;;11.15;6.95;;;21.10;99.90;;;;;;5032455;28;20398;-50
2021/06/25 12:38:28;;;;;;;14.80;8.40;;;21.20;99.90;;;;;;5032794;28;20383;-50
2021/06/25 12:40:57;;;;;;;15.75;8.00;;;20.90;99.90;;;;;;5031894;28;20407;-50
2021/06/25 12:43:32;;;;;;;14.20;9.68;;;21.00;99.90;;;;;;5032897;28;20398;-50
2021/06/25 12:46:06;;;;;;;12.68;8.00;;;21.00;99.90;;;;;;5032171;28;20392;-50
2021/06/25 12:48:36;;;;;;;14.48;8.90;;;21.50;99.90;;;;;;5033278;28;20404;-50
2021/06/25 12:51:04;;;;;;;13.90;7.90;;;21.80;99.90;;;;;;5032139;28;20379;-50
2021/06/25 12:53:32;;;;;;;14.25;8.15;;;21.50;99.90;;;;;;5032981;28;20387;-50
2021/06/25 12:56:19;;;;;;;12.27;8.20;;;21.20;99.90;;;;;;5031956;28;20625;-50
2021/06/25 12:58:48;;;;;;;11.07;7.17;;;20.50;99.90;;;;;;5031965;28;20413;-51